Time;durP1;ratioP1;P1;durP2;ratioP2;P2;SDS_P1;SDS_P2;PMS_P1;PMS_P2;Temp;Humidity;BMP_temperature;BMP_pressure;BME280_temperature;BME280_humidity;BME280_pressure;Samples;Min_cycle;Max_cycle;Signal;HPM_P1;HPM_P2
2023/07/13 00:01:50;;;;;;;16.17;10.10;;;27.70;92.60;;;;;;5042459;28;20201;-65
2023/07/13 00:04:20;;;;;;;20.03;11.30;;;27.70;92.60;;;;;;5043412;28;20209;-64
2023/07/13 00:06:47;;;;;;;22.23;12.83;;;27.60;92.70;;;;;;5037130;28;20282;-63
2023/07/13 00:09:16;;;;;;;18.50;14.43;;;27.50;93.10;;;;;;5039019;28;20214;-65
2023/07/13 00:11:44;;;;;;;17.83;14.93;;;27.40;93.70;;;;;;5040500;28;20203;-64
2023/07/13 00:14:11;;;;;;;18.93;15.77;;;27.30;94.10;;;;;;5041493;28;20207;-64
2023/07/13 00:16:43;;;;;;;25.43;17.57;;;27.20;94.50;;;;;;5043669;28;20240;-64
2023/07/13 00:19:12;;;;;;;19.63;17.37;;;27.10;94.60;;;;;;5048124;28;20250;-63
2023/07/13 00:21:42;;;;;;;21.70;17.17;;;27.00;94.80;;;;;;5044439;28;20270;-64
2023/07/13 00:24:15;;;;;;;21.00;16.37;;;26.90;94.90;;;;;;5044008;28;20222;-64
2023/07/13 00:26:45;;;;;;;18.40;15.00;;;26.90;94.90;;;;;;5044028;28;20195;-65
2023/07/13 00:29:13;;;;;;;20.70;14.80;;;26.90;94.90;;;;;;5044491;28;20262;-64
2023/07/13 00:31:40;;;;;;;15.63;12.37;;;26.80;94.80;;;;;;5045702;28;20228;-64
2023/07/13 00:34:07;;;;;;;17.10;12.17;;;26.80;94.60;;;;;;5037917;28;20202;-64
2023/07/13 00:36:35;;;;;;;18.80;11.47;;;26.80;94.50;;;;;;5043621;28;20216;-64
2023/07/13 00:39:03;;;;;;;15.07;9.50;;;26.70;94.30;;;;;;5059972;28;20279;-64
2023/07/13 00:41:31;;;;;;;15.27;10.40;;;26.70;93.70;;;;;;5041837;28;20206;-64
2023/07/13 00:43:59;;;;;;;14.80;8.30;;;26.60;93.10;;;;;;5043452;28;20199;-64
2023/07/13 00:46:29;;;;;;;13.60;6.90;;;26.50;92.80;;;;;;5047819;28;20592;-63
2023/07/13 00:49:02;;;;;;;6.70;4.83;;;26.50;92.40;;;;;;5040470;28;20208;-64
2023/07/13 00:51:39;;;;;;;10.47;5.00;;;26.40;90.60;;;;;;5027491;28;20206;-64
2023/07/13 00:54:10;;;;;;;8.73;3.70;;;26.40;88.40;;;;;;5049407;28;20223;-64
2023/07/13 00:56:40;;;;;;;9.23;3.50;;;26.40;86.10;;;;;;5047101;28;20215;-64
2023/07/13 00:59:10;;;;;;;5.53;3.30;;;26.30;85.10;;;;;;5040907;28;20259;-64
2023/07/13 01:01:39;;;;;;;6.83;3.07;;;26.20;84.70;;;;;;5044996;28;20202;-64
2023/07/13 01:04:07;;;;;;;6.63;2.70;;;26.30;84.50;;;;;;5031869;28;20322;-64
2023/07/13 01:06:39;;;;;;;7.30;2.73;;;26.20;84.60;;;;;;5028767;28;20215;-64
2023/07/13 01:09:08;;;;;;;8.07;2.50;;;26.30;84.50;;;;;;5053664;28;20217;-64
2023/07/13 01:11:37;;;;;;;7.80;2.60;;;26.20;83.90;;;;;;5027196;28;20209;-64
2023/07/13 01:14:04;;;;;;;6.60;2.50;;;26.30;83.20;;;;;;5042249;28;20217;-64
2023/07/13 01:16:36;;;;;;;7.47;2.50;;;26.30;82.30;;;;;;5044460;28;20289;-64
2023/07/13 01:19:35;;;;;;;5.53;2.27;;;26.30;82.50;;;;;;5039273;28;20233;-64
2023/07/13 01:22:13;;;;;;;7.83;2.60;;;26.30;82.00;;;;;;5056427;28;20694;-64
2023/07/13 01:24:42;;;;;;;8.17;2.40;;;26.20;81.30;;;;;;5040096;28;20282;-64
2023/07/13 01:27:16;;;;;;;8.30;2.53;;;26.20;81.50;;;;;;5034116;28;20204;-64
2023/07/13 01:29:46;;;;;;;6.20;2.30;;;26.20;81.90;;;;;;5044349;28;20210;-64
2023/07/13 01:32:22;;;;;;;4.37;2.13;;;26.20;82.40;;;;;;5039332;28;20194;-65
2023/07/13 01:34:56;;;;;;;2.37;1.73;;;26.20;82.90;;;;;;5038859;28;20212;-65
2023/07/13 01:37:25;;;;;;;6.10;2.03;;;26.30;83.10;;;;;;5043752;28;20645;-64
2023/07/13 01:39:53;;;;;;;5.03;2.53;;;26.20;82.80;;;;;;5035501;28;20271;-64
2023/07/13 01:42:20;;;;;;;2.93;2.03;;;26.20;82.50;;;;;;5039273;28;20584;-64
2023/07/13 01:44:50;;;;;;;3.03;1.77;;;26.30;82.80;;;;;;5026117;28;20203;-64
2023/07/13 01:47:17;;;;;;;7.57;2.00;;;26.20;82.90;;;;;;5029183;28;20203;-64
2023/07/13 01:49:47;;;;;;;7.50;2.60;;;26.20;83.00;;;;;;5039974;28;20200;-64
2023/07/13 01:52:14;;;;;;;2.93;2.17;;;26.20;82.90;;;;;;5038807;28;20544;-64
2023/07/13 01:54:41;;;;;;;4.77;1.80;;;26.20;82.90;;;;;;5043858;28;20265;-64
2023/07/13 01:57:08;;;;;;;4.33;2.13;;;26.20;82.60;;;;;;5038171;28;20195;-64
2023/07/13 01:59:35;;;;;;;4.93;2.63;;;26.20;82.40;;;;;;5038404;28;20219;-64
2023/07/13 02:02:05;;;;;;;2.87;2.10;;;26.10;82.30;;;;;;5026952;28;20202;-64
2023/07/13 02:04:33;;;;;;;3.97;2.07;;;26.10;82.40;;;;;;5041843;28;20203;-64
2023/07/13 02:07:00;;;;;;;5.93;2.20;;;26.10;82.50;;;;;;5030566;28;20298;-64
2023/07/13 02:09:28;;;;;;;3.47;2.47;;;26.10;82.60;;;;;;5036321;28;20574;-65
2023/07/13 02:11:55;;;;;;;6.00;2.50;;;26.10;82.60;;;;;;5039337;28;20244;-64
2023/07/13 02:14:24;;;;;;;4.47;1.73;;;26.10;82.40;;;;;;5030761;28;20223;-65
2023/07/13 02:16:51;;;;;;;4.07;2.30;;;26.10;82.30;;;;;;5023833;28;20277;-64
2023/07/13 02:19:18;;;;;;;7.90;2.23;;;26.10;82.20;;;;;;5039378;28;20225;-65
2023/07/13 02:21:46;;;;;;;6.27;2.27;;;26.10;82.00;;;;;;5036036;28;20233;-64
2023/07/13 02:24:19;;;;;;;6.40;2.10;;;26.10;81.80;;;;;;5040162;28;20197;-64
2023/07/13 02:26:46;;;;;;;8.57;3.00;;;26.10;81.90;;;;;;5041474;28;20203;-65
2023/07/13 02:29:13;;;;;;;5.10;2.43;;;26.10;82.20;;;;;;5043415;28;20333;-65
2023/07/13 02:31:41;;;;;;;5.63;2.27;;;26.10;82.40;;;;;;5044038;28;20240;-64
2023/07/13 02:34:08;;;;;;;6.27;2.47;;;26.10;82.50;;;;;;5042177;28;20216;-64
2023/07/13 02:36:36;;;;;;;6.00;2.30;;;26.10;82.70;;;;;;5042736;28;20565;-64
2023/07/13 02:39:06;;;;;;;5.97;2.30;;;26.10;82.70;;;;;;5026048;28;20219;-64
2023/07/13 02:41:36;;;;;;;6.37;1.83;;;26.10;82.60;;;;;;5040253;28;20267;-64
2023/07/13 02:44:03;;;;;;;4.13;2.40;;;26.10;83.20;;;;;;5038375;28;20289;-64
2023/07/13 02:46:32;;;;;;;8.67;2.60;;;26.10;82.50;;;;;;5034131;28;20255;-65
2023/07/13 02:48:59;;;;;;;5.83;2.90;;;26.10;82.50;;;;;;5040654;28;20221;-64
2023/07/13 02:51:27;;;;;;;6.07;2.33;;;26.10;82.50;;;;;;5032559;28;20260;-65
2023/07/13 02:53:54;;;;;;;5.93;2.87;;;26.10;82.40;;;;;;5029825;28;20214;-64
2023/07/13 02:56:26;;;;;;;4.63;2.57;;;26.00;82.40;;;;;;5036225;28;20199;-64
2023/07/13 02:58:54;;;;;;;4.47;2.60;;;26.00;82.50;;;;;;5021560;28;20549;-66
2023/07/13 03:01:22;;;;;;;8.53;2.80;;;26.00;82.40;;;;;;5022272;28;20638;-64
2023/07/13 03:03:54;;;;;;;8.20;2.53;;;26.00;82.30;;;;;;5029821;28;20196;-64
2023/07/13 03:06:22;;;;;;;7.37;3.13;;;26.00;82.20;;;;;;5040361;28;20676;-64
2023/07/13 03:08:53;;;;;;;5.07;2.53;;;26.00;82.10;;;;;;5030452;28;20650;-64
2023/07/13 03:11:22;;;;;;;5.73;2.77;;;26.00;82.10;;;;;;5036258;28;20210;-64
2023/07/13 03:13:55;;;;;;;7.30;2.33;;;26.00;82.10;;;;;;5033785;28;20538;-64
2023/07/13 03:16:23;;;;;;;5.90;2.70;;;26.00;82.20;;;;;;5027211;28;20275;-64
2023/07/13 03:18:52;;;;;;;3.67;2.77;;;26.00;82.10;;;;;;5035892;28;20294;-65
2023/07/13 03:21:19;;;;;;;6.27;2.53;;;26.00;82.20;;;;;;5036244;28;20197;-64
2023/07/13 03:23:47;;;;;;;5.60;2.50;;;26.00;82.20;;;;;;5025582;28;20201;-65
2023/07/13 03:26:18;;;;;;;4.00;2.90;;;26.00;82.40;;;;;;5033547;28;20204;-64
2023/07/13 03:28:45;;;;;;;11.17;2.83;;;26.00;82.70;;;;;;5026258;28;20371;-64
2023/07/13 03:31:20;;;;;;;7.00;3.50;;;26.00;82.70;;;;;;5061040;28;20209;-64
2023/07/13 03:33:48;;;;;;;3.07;2.50;;;26.00;83.00;;;;;;5059225;28;20226;-64
2023/07/13 03:36:22;;;;;;;9.30;3.40;;;26.00;83.20;;;;;;5031226;28;20604;-65
2023/07/13 03:38:54;;;;;;;8.30;3.20;;;25.90;83.40;;;;;;5033743;28;20216;-64
2023/07/13 03:41:25;;;;;;;4.93;3.00;;;25.90;83.40;;;;;;5027317;28;20213;-64
2023/07/13 03:43:54;;;;;;;10.43;3.50;;;25.90;83.40;;;;;;5020036;28;20210;-64
2023/07/13 03:46:23;;;;;;;6.63;3.50;;;25.90;83.40;;;;;;5033634;28;20203;-64
2023/07/13 03:48:51;;;;;;;5.77;3.13;;;25.90;83.40;;;;;;5031861;28;20291;-64
2023/07/13 03:51:21;;;;;;;6.17;2.80;;;25.80;83.50;;;;;;5031831;28;20218;-64
2023/07/13 03:53:48;;;;;;;6.60;2.73;;;25.80;83.70;;;;;;5040646;28;20260;-64
2023/07/13 03:56:19;;;;;;;5.80;3.40;;;25.80;83.90;;;;;;5029288;28;20209;-64
2023/07/13 03:58:48;;;;;;;8.60;2.80;;;25.80;83.80;;;;;;5053671;28;20606;-64
2023/07/13 04:01:21;;;;;;;4.27;2.50;;;25.70;83.60;;;;;;5057993;28;20554;-64
2023/07/13 04:03:49;;;;;;;5.47;2.40;;;25.70;83.40;;;;;;5035607;28;20198;-64
2023/07/13 04:06:20;;;;;;;6.30;2.83;;;25.60;83.30;;;;;;5060260;28;20541;-65
2023/07/13 04:08:51;;;;;;;7.40;2.57;;;25.60;83.60;;;;;;5035598;28;20211;-64
2023/07/13 04:11:19;;;;;;;5.47;2.70;;;25.50;83.50;;;;;;5025721;28;20259;-64
2023/07/13 04:13:47;;;;;;;7.07;2.60;;;25.50;83.60;;;;;;5045324;28;20225;-64
2023/07/13 04:16:18;;;;;;;7.03;2.70;;;25.50;83.50;;;;;;5034472;28;20231;-64
2023/07/13 04:18:46;;;;;;;6.47;2.87;;;25.50;83.50;;;;;;5043831;28;20226;-64
2023/07/13 04:21:14;;;;;;;7.10;2.80;;;25.50;83.60;;;;;;5038254;28;20214;-64
2023/07/13 04:23:41;;;;;;;5.90;2.80;;;25.40;83.90;;;;;;5045289;28;20503;-64
2023/07/13 04:26:09;;;;;;;11.43;2.97;;;25.50;84.30;;;;;;5047455;28;20282;-64
2023/07/13 04:28:36;;;;;;;5.63;2.60;;;25.40;84.40;;;;;;5043986;28;20710;-64
2023/07/13 04:31:04;;;;;;;2.97;2.17;;;25.40;84.60;;;;;;5042351;28;20203;-64
2023/07/13 04:33:31;;;;;;;10.10;2.83;;;25.40;84.70;;;;;;5043306;28;20668;-64
2023/07/13 04:35:59;;;;;;;5.93;2.83;;;25.40;84.70;;;;;;5029616;28;20221;-64
2023/07/13 04:38:28;;;;;;;3.97;2.63;;;25.40;84.70;;;;;;5043459;28;20231;-64
2023/07/13 04:40:58;;;;;;;5.77;3.43;;;25.40;84.80;;;;;;5044974;28;20398;-64
2023/07/13 04:43:26;;;;;;;6.23;3.00;;;25.40;84.70;;;;;;5044087;28;20263;-64
2023/07/13 04:45:53;;;;;;;5.87;3.17;;;25.40;84.70;;;;;;5042749;28;20644;-64
2023/07/13 04:48:21;;;;;;;4.80;2.67;;;25.40;84.80;;;;;;5041503;28;20551;-64
2023/07/13 04:50:55;;;;;;;5.80;2.70;;;25.40;84.90;;;;;;5042990;28;20630;-64
2023/07/13 04:53:22;;;;;;;6.83;3.17;;;25.40;85.30;;;;;;5043586;28;20197;-64
2023/07/13 04:55:49;;;;;;;9.33;3.40;;;25.40;85.10;;;;;;5037259;28;20211;-64
2023/07/13 04:58:17;;;;;;;7.83;2.70;;;25.50;84.90;;;;;;5039267;28;20778;-65
2023/07/13 05:00:44;;;;;;;4.33;3.00;;;25.50;84.90;;;;;;5041314;28;20614;-64
2023/07/13 05:03:11;;;;;;;7.07;2.70;;;25.50;84.80;;;;;;5031326;28;20214;-64
2023/07/13 05:05:38;;;;;;;9.30;3.77;;;25.50;84.60;;;;;;5040930;28;20205;-64
2023/07/13 05:08:07;;;;;;;7.30;2.60;;;25.60;84.50;;;;;;5041777;28;20301;-63
2023/07/13 05:10:35;;;;;;;6.00;2.47;;;25.60;84.50;;;;;;5038596;28;20199;-64
2023/07/13 05:13:02;;;;;;;7.63;3.13;;;25.60;84.60;;;;;;5042012;28;20203;-64
2023/07/13 05:15:33;;;;;;;7.80;2.93;;;25.50;84.70;;;;;;5041896;28;20655;-64
2023/07/13 05:18:01;;;;;;;5.13;2.50;;;25.60;84.90;;;;;;5044369;28;20558;-64
2023/07/13 05:20:28;;;;;;;14.03;2.70;;;25.60;84.50;;;;;;5045074;28;20685;-64
2023/07/13 05:22:55;;;;;;;6.27;2.63;;;25.70;84.40;;;;;;5038574;28;20241;-64
2023/07/13 05:25:22;;;;;;;8.00;2.37;;;25.80;84.50;;;;;;5039670;28;20203;-64
2023/07/13 05:27:49;;;;;;;3.93;2.23;;;25.80;84.50;;;;;;5041870;28;20262;-64
2023/07/13 05:30:16;;;;;;;5.50;2.37;;;25.80;84.20;;;;;;5040330;28;20824;-64
2023/07/13 05:32:43;;;;;;;4.93;3.07;;;26.00;84.20;;;;;;5041063;28;20198;-64
2023/07/13 05:35:10;;;;;;;3.50;2.13;;;26.00;83.90;;;;;;5036869;28;20205;-66
2023/07/13 05:37:37;;;;;;;5.53;2.70;;;26.00;83.40;;;;;;5040897;28;20213;-64
2023/07/13 05:40:05;;;;;;;3.73;1.97;;;26.10;83.50;;;;;;5042896;28;20650;-64
2023/07/13 05:42:32;;;;;;;5.67;1.90;;;26.10;83.50;;;;;;5038406;28;20233;-64
2023/07/13 05:44:59;;;;;;;3.87;2.20;;;26.10;83.20;;;;;;5041054;28;20204;-64
2023/07/13 05:47:26;;;;;;;5.83;2.07;;;26.10;83.30;;;;;;5042374;28;20202;-64
2023/07/13 05:49:53;;;;;;;5.37;1.90;;;26.20;83.20;;;;;;5040713;28;20210;-64
2023/07/13 05:52:20;;;;;;;3.33;2.30;;;26.20;83.20;;;;;;5037132;28;20205;-64
2023/07/13 05:54:47;;;;;;;5.20;2.00;;;26.20;83.00;;;;;;5046480;28;20212;-64
2023/07/13 05:57:15;;;;;;;6.17;2.23;;;26.20;82.80;;;;;;5048165;28;20208;-64
2023/07/13 05:59:42;;;;;;;5.67;2.70;;;26.30;82.90;;;;;;5039688;28;20271;-64
2023/07/13 06:02:10;;;;;;;5.97;2.30;;;26.40;82.90;;;;;;5046359;28;20196;-63
2023/07/13 06:04:37;;;;;;;4.53;1.83;;;26.40;82.70;;;;;;5038466;28;20417;-64
2023/07/13 06:07:05;;;;;;;5.07;2.07;;;26.50;82.20;;;;;;5040798;28;20202;-64
2023/07/13 06:09:32;;;;;;;4.70;1.80;;;26.50;82.20;;;;;;5042453;28;20190;-64
2023/07/13 06:11:59;;;;;;;5.43;2.07;;;26.60;81.80;;;;;;5038505;28;20203;-64
2023/07/13 06:14:26;;;;;;;7.90;2.20;;;26.70;81.60;;;;;;5041775;28;20634;-64
2023/07/13 06:16:53;;;;;;;5.23;2.00;;;26.70;81.50;;;;;;5044653;28;20264;-64
2023/07/13 06:19:20;;;;;;;3.47;2.10;;;26.80;81.20;;;;;;5041536;28;20219;-64
2023/07/13 06:21:47;;;;;;;4.97;2.30;;;26.90;80.80;;;;;;5039271;28;20607;-64
2023/07/13 06:24:14;;;;;;;8.93;2.57;;;27.00;80.70;;;;;;5041145;28;20197;-65
2023/07/13 06:26:41;;;;;;;6.27;2.27;;;27.10;80.40;;;;;;5041557;28;20195;-63
2023/07/13 06:29:08;;;;;;;8.37;2.73;;;27.20;80.10;;;;;;5042361;28;20238;-64
2023/07/13 06:31:36;;;;;;;4.47;2.37;;;27.30;79.80;;;;;;5040605;28;20215;-63
2023/07/13 06:34:03;;;;;;;11.77;2.40;;;27.30;79.70;;;;;;5050754;28;20229;-63
2023/07/13 06:36:30;;;;;;;7.47;2.30;;;27.40;79.60;;;;;;5048132;28;20282;-63
2023/07/13 06:38:57;;;;;;;5.00;2.47;;;27.50;79.40;;;;;;5044766;28;20210;-63
2023/07/13 06:41:27;;;;;;;8.63;2.77;;;27.60;78.80;;;;;;5040019;28;20662;-63
2023/07/13 06:43:54;;;;;;;7.70;2.50;;;27.50;78.90;;;;;;5039114;28;20187;-64
2023/07/13 06:46:23;;;;;;;6.87;2.50;;;27.60;79.00;;;;;;5040910;28;20202;-64
2023/07/13 06:48:50;;;;;;;11.33;2.70;;;27.60;79.20;;;;;;5044959;28;20230;-64
2023/07/13 06:51:17;;;;;;;6.97;2.17;;;27.70;79.40;;;;;;5046193;28;20203;-64
2023/07/13 06:53:44;;;;;;;5.40;2.83;;;27.80;79.10;;;;;;5048319;28;20205;-64
2023/07/13 06:56:11;;;;;;;7.17;2.97;;;27.80;79.10;;;;;;5042227;28;20195;-64
2023/07/13 06:58:38;;;;;;;3.97;2.50;;;27.90;79.10;;;;;;5050496;28;20206;-64
2023/07/13 07:01:05;;;;;;;6.10;3.03;;;27.90;78.80;;;;;;5042128;28;20224;-65
2023/07/13 07:03:34;;;;;;;6.47;3.07;;;27.90;78.20;;;;;;5046510;28;20229;-64
2023/07/13 07:06:15;;;;;;;8.03;2.70;;;27.90;78.30;;;;;;5049773;28;20222;-63
2023/07/13 07:08:43;;;;;;;7.03;3.20;;;28.00;78.10;;;;;;5038626;28;20199;-63
2023/07/13 07:11:16;;;;;;;7.33;2.80;;;28.00;78.00;;;;;;5041520;28;20210;-64
2023/07/13 07:13:43;;;;;;;8.97;3.13;;;28.00;78.70;;;;;;5046008;28;20256;-63
2023/07/13 07:16:10;;;;;;;4.50;3.23;;;28.00;78.30;;;;;;5046419;28;20252;-64
2023/07/13 07:18:39;;;;;;;9.83;3.27;;;28.10;78.40;;;;;;5043890;28;20245;-63
2023/07/13 07:21:07;;;;;;;9.97;3.73;;;28.10;78.60;;;;;;5044460;28;20222;-63
2023/07/13 07:23:34;;;;;;;9.73;3.20;;;28.10;78.70;;;;;;5041901;28;20217;-63
2023/07/13 07:26:01;;;;;;;4.83;3.50;;;28.20;78.70;;;;;;5044638;28;20213;-63
2023/07/13 07:28:29;;;;;;;5.83;3.83;;;28.20;78.80;;;;;;5061164;28;20316;-64
2023/07/13 07:31:10;;;;;;;6.47;3.30;;;28.20;79.40;;;;;;5045564;28;20225;-64
2023/07/13 07:33:40;;;;;;;6.80;3.50;;;28.10;79.70;;;;;;5048691;28;20191;-63
2023/07/13 07:36:07;;;;;;;7.50;3.90;;;28.10;80.20;;;;;;5043686;28;20214;-64
2023/07/13 07:38:37;;;;;;;6.90;3.70;;;28.10;80.30;;;;;;5044038;28;20297;-63
2023/07/13 07:41:05;;;;;;;10.43;3.30;;;28.00;80.40;;;;;;5045479;28;20236;-64
2023/07/13 07:43:36;;;;;;;9.57;3.83;;;28.00;80.20;;;;;;5046012;28;20217;-63
2023/07/13 07:46:03;;;;;;;12.30;3.53;;;27.90;80.50;;;;;;5039742;28;20202;-64
2023/07/13 07:48:31;;;;;;;10.70;3.57;;;27.90;81.00;;;;;;5043984;28;20203;-64
2023/07/13 07:50:58;;;;;;;5.77;2.97;;;27.90;80.80;;;;;;5045223;28;20202;-64
2023/07/13 07:53:25;;;;;;;10.40;3.67;;;27.80;80.70;;;;;;5045699;28;20228;-64
2023/07/13 07:55:52;;;;;;;5.83;2.97;;;27.70;80.90;;;;;;5039084;28;20242;-63
2023/07/13 07:58:24;;;;;;;6.33;2.70;;;27.70;80.80;;;;;;5038854;28;20282;-64
2023/07/13 08:01:01;;;;;;;7.57;3.23;;;27.60;81.00;;;;;;5043974;28;20250;-64
2023/07/13 08:03:31;;;;;;;6.47;3.30;;;27.50;81.10;;;;;;5044817;28;20207;-64
2023/07/13 08:06:19;;;;;;;6.00;2.70;;;27.50;81.60;;;;;;5047714;28;20206;-64
2023/07/13 08:08:50;;;;;;;10.47;3.00;;;27.40;81.80;;;;;;5046462;28;20194;-63
2023/07/13 08:11:18;;;;;;;4.30;2.70;;;27.40;82.00;;;;;;5044655;28;20224;-64
2023/07/13 08:13:47;;;;;;;10.63;2.97;;;27.30;82.10;;;;;;5045736;28;20210;-64
2023/07/13 08:16:17;;;;;;;4.63;2.63;;;27.30;82.60;;;;;;5043033;28;20197;-64
2023/07/13 08:18:45;;;;;;;4.33;2.67;;;27.20;82.90;;;;;;5038788;28;20280;-63
2023/07/13 08:21:12;;;;;;;7.93;3.03;;;27.20;83.30;;;;;;5036999;28;20230;-64
2023/07/13 08:23:39;;;;;;;5.30;2.30;;;27.10;83.50;;;;;;5038017;28;20194;-64
2023/07/13 08:26:07;;;;;;;8.77;2.67;;;27.00;83.80;;;;;;5042080;28;20203;-64
2023/07/13 08:28:34;;;;;;;6.43;2.93;;;26.90;84.20;;;;;;5042710;28;20694;-63
2023/07/13 08:31:04;;;;;;;5.13;2.70;;;26.80;84.50;;;;;;5036449;28;20549;-64
2023/07/13 08:33:31;;;;;;;5.43;2.43;;;26.80;85.10;;;;;;5041435;28;20199;-64
2023/07/13 08:35:58;;;;;;;4.27;2.40;;;26.70;85.30;;;;;;5039828;28;21010;-63
2023/07/13 08:38:25;;;;;;;7.33;2.50;;;26.70;85.60;;;;;;5032829;28;20250;-63
2023/07/13 08:40:57;;;;;;;5.10;2.40;;;26.60;85.70;;;;;;5042406;28;20242;-63
2023/07/13 08:43:32;;;;;;;4.67;2.17;;;26.60;85.80;;;;;;5047366;28;20210;-65
2023/07/13 08:46:07;;;;;;;7.23;2.53;;;26.50;86.10;;;;;;5044561;28;20198;-63
2023/07/13 08:48:41;;;;;;;5.53;2.50;;;26.40;86.30;;;;;;5042929;28;20190;-63
2023/07/13 08:51:17;;;;;;;6.47;2.47;;;26.40;86.50;;;;;;5046133;28;20228;-64
2023/07/13 08:53:48;;;;;;;7.53;3.03;;;26.40;86.50;;;;;;5044618;28;20195;-63
2023/07/13 08:56:21;;;;;;;5.10;2.37;;;26.40;86.60;;;;;;5037911;28;20201;-67
2023/07/13 08:58:54;;;;;;;6.33;3.07;;;26.40;86.30;;;;;;5037655;28;20228;-64
2023/07/13 09:01:46;;;;;;;4.87;2.47;;;26.30;86.10;;;;;;5038871;28;20242;-65
2023/07/13 09:04:22;;;;;;;4.20;2.63;;;26.30;86.30;;;;;;5042685;28;20198;-64
2023/07/13 09:06:55;;;;;;;7.50;2.90;;;26.20;86.30;;;;;;5042793;28;20262;-64
2023/07/13 09:09:47;;;;;;;5.30;2.70;;;26.20;86.20;;;;;;5040215;28;20215;-63
2023/07/13 09:12:31;;;;;;;3.73;2.60;;;26.10;86.10;;;;;;5038490;28;20229;-63
2023/07/13 09:15:00;;;;;;;6.37;3.33;;;26.10;86.10;;;;;;5058900;28;20224;-65
2023/07/13 09:17:35;;;;;;;6.63;2.60;;;26.00;86.20;;;;;;5044128;28;20206;-64
2023/07/13 09:20:23;;;;;;;8.40;2.70;;;26.00;86.60;;;;;;5051047;28;20197;-62
2023/07/13 09:22:50;;;;;;;4.10;2.80;;;26.00;86.60;;;;;;5046886;28;20254;-64
2023/07/13 09:25:31;;;;;;;9.43;3.10;;;26.00;86.60;;;;;;5045483;28;20191;-64
2023/07/13 09:28:14;;;;;;;4.00;2.90;;;25.90;86.90;;;;;;5041542;28;20270;-65
2023/07/13 09:31:00;;;;;;;4.83;3.07;;;25.80;87.30;;;;;;5040728;28;20190;-65
2023/07/13 09:33:29;;;;;;;4.83;3.40;;;25.80;87.40;;;;;;5037464;28;20213;-64
2023/07/13 09:35:59;;;;;;;6.63;3.33;;;25.80;87.60;;;;;;5032893;28;20599;-64
2023/07/13 09:38:29;;;;;;;4.63;3.00;;;25.70;87.70;;;;;;5041903;28;20237;-65
2023/07/13 09:41:20;;;;;;;6.37;3.40;;;25.70;88.00;;;;;;5041790;28;20217;-65
2023/07/13 09:44:11;;;;;;;7.60;3.37;;;25.70;88.60;;;;;;5042819;28;20789;-66
2023/07/13 09:46:45;;;;;;;5.47;2.60;;;25.70;89.80;;;;;;5036498;28;20195;-62
2023/07/13 09:49:13;;;;;;;8.33;3.27;;;25.70;89.60;;;;;;5041744;28;20213;-63
2023/07/13 09:51:44;;;;;;;5.93;3.47;;;25.70;89.80;;;;;;5042650;28;20200;-64
2023/07/13 09:54:20;;;;;;;11.00;3.80;;;25.60;90.10;;;;;;5049537;28;20199;-62
2023/07/13 09:56:47;;;;;;;8.97;3.17;;;25.40;90.30;;;;;;5039024;28;20209;-65
2023/07/13 09:59:22;;;;;;;5.30;3.33;;;25.40;90.30;;;;;;5039346;28;20209;-64
2023/07/13 10:01:50;;;;;;;5.03;2.87;;;25.40;90.30;;;;;;5041748;28;20601;-63
2023/07/13 10:04:19;;;;;;;4.30;2.67;;;25.30;90.20;;;;;;5042038;28;20219;-65
2023/07/13 10:06:47;;;;;;;4.97;3.00;;;25.30;90.10;;;;;;5039231;28;20190;-63
2023/07/13 10:09:18;;;;;;;4.53;3.20;;;25.20;90.20;;;;;;5039261;28;20276;-62
2023/07/13 10:11:46;;;;;;;5.00;2.97;;;25.20;90.20;;;;;;5040664;28;20208;-66
2023/07/13 10:14:25;;;;;;;6.70;3.07;;;25.20;90.20;;;;;;5040917;28;20227;-64
2023/07/13 10:17:00;;;;;;;6.70;2.70;;;25.30;90.10;;;;;;5041497;28;20207;-61
2023/07/13 10:19:35;;;;;;;11.60;3.03;;;25.30;90.10;;;;;;5043560;28;20250;-62
2023/07/13 10:22:32;;;;;;;7.63;2.67;;;25.30;90.20;;;;;;5038252;28;20224;-60
2023/07/13 10:25:00;;;;;;;7.07;2.50;;;25.40;90.30;;;;;;5042586;28;20193;-59
2023/07/13 10:27:35;;;;;;;5.63;2.90;;;25.60;90.30;;;;;;5046507;28;20203;-60
2023/07/13 10:30:05;;;;;;;5.73;2.30;;;26.00;90.10;;;;;;5047171;28;20190;-62
2023/07/13 10:32:32;;;;;;;6.20;2.30;;;26.30;88.40;;;;;;5045418;28;20201;-60
2023/07/13 10:35:02;;;;;;;5.20;2.30;;;26.60;87.30;;;;;;5046199;28;20206;-61
2023/07/13 10:37:51;;;;;;;5.40;2.17;;;26.80;86.50;;;;;;5051763;28;20212;-60
2023/07/13 10:40:25;;;;;;;5.17;2.43;;;26.90;86.00;;;;;;5044144;28;20296;-61
2023/07/13 10:42:56;;;;;;;3.33;2.20;;;27.10;85.20;;;;;;5044750;28;20290;-61
2023/07/13 10:45:24;;;;;;;6.10;2.47;;;27.30;84.20;;;;;;5044869;28;20195;-63
2023/07/13 10:47:55;;;;;;;4.80;2.70;;;27.30;84.30;;;;;;5046626;28;20711;-61
2023/07/13 10:50:26;;;;;;;10.23;3.23;;;27.30;84.00;;;;;;5047414;28;20625;-61
2023/07/13 10:53:02;;;;;;;5.33;2.77;;;27.30;84.20;;;;;;5051075;28;20199;-60
2023/07/13 10:55:37;;;;;;;7.33;2.77;;;27.40;84.80;;;;;;5043807;28;20257;-61
2023/07/13 10:58:18;;;;;;;9.77;2.70;;;27.50;85.10;;;;;;5046194;28;20191;-60
2023/07/13 11:01:31;;;;;;;6.77;3.33;;;27.60;85.10;;;;;;5044979;28;20316;-63
2023/07/13 11:04:03;;;;;;;6.57;3.80;;;27.90;84.90;;;;;;5043321;28;20677;-63
2023/07/13 11:06:44;;;;;;;5.60;2.63;;;28.10;84.50;;;;;;5043058;28;20664;-61
2023/07/13 11:09:20;;;;;;;8.70;2.90;;;28.30;84.10;;;;;;5041198;28;20599;-63
2023/07/13 11:11:49;;;;;;;6.10;2.93;;;28.50;83.30;;;;;;5046872;28;20213;-62
2023/07/13 11:14:38;;;;;;;8.90;3.30;;;28.70;82.80;;;;;;5046736;28;20203;-61
2023/07/13 11:17:27;;;;;;;12.37;3.40;;;28.90;82.30;;;;;;5044288;28;20526;-60
2023/07/13 11:20:13;;;;;;;10.33;3.60;;;29.30;82.10;;;;;;5044253;28;20206;-63
2023/07/13 11:22:53;;;;;;;6.97;3.80;;;29.70;81.70;;;;;;5061724;28;20194;-61
2023/07/13 11:25:23;;;;;;;6.00;4.10;;;30.10;79.80;;;;;;5041962;28;20217;-61
2023/07/13 11:28:04;;;;;;;6.03;3.43;;;30.50;78.60;;;;;;5045630;28;20308;-60
2023/07/13 11:30:35;;;;;;;8.83;5.00;;;30.70;77.80;;;;;;5048333;28;20259;-59
2023/07/13 11:33:26;;;;;;;5.03;4.13;;;30.90;76.90;;;;;;5047238;28;20681;-61
2023/07/13 11:35:56;;;;;;;7.03;4.20;;;31.20;75.80;;;;;;5045291;28;20199;-60
2023/07/13 11:38:36;;;;;;;9.60;4.30;;;31.50;74.40;;;;;;5048805;28;20664;-61
2023/07/13 11:41:31;;;;;;;7.50;4.60;;;31.70;73.70;;;;;;5047856;28;20203;-63
2023/07/13 11:44:15;;;;;;;15.50;6.10;;;32.00;73.20;;;;;;5040129;28;20740;-61
2023/07/13 11:46:51;;;;;;;7.63;4.77;;;32.20;71.60;;;;;;5038650;28;20192;-62
2023/07/13 11:49:24;;;;;;;10.40;4.60;;;32.40;71.00;;;;;;5042919;28;20261;-62
2023/07/13 11:51:55;;;;;;;8.80;5.77;;;32.60;70.70;;;;;;5042667;28;20282;-62
2023/07/13 11:54:33;;;;;;;10.33;5.27;;;32.80;69.90;;;;;;5045620;28;20246;-62
2023/07/13 11:57:22;;;;;;;7.20;5.10;;;32.80;69.00;;;;;;5041777;28;20203;-62
2023/07/13 11:59:52;;;;;;;11.53;5.47;;;32.90;68.70;;;;;;5043188;28;20222;-62
2023/07/13 12:02:33;;;;;;;7.70;5.07;;;32.90;68.50;;;;;;5043739;28;20238;-63
2023/07/13 12:05:02;;;;;;;8.13;4.77;;;33.00;68.50;;;;;;5046447;28;20220;-66
2023/07/13 12:07:32;;;;;;;11.50;4.67;;;33.20;68.10;;;;;;5051542;28;20203;-67
2023/07/13 12:10:22;;;;;;;11.00;4.70;;;33.30;67.80;;;;;;5037182;28;20590;-62
2023/07/13 12:12:56;;;;;;;6.60;4.77;;;33.40;67.70;;;;;;5047814;28;20226;-64
2023/07/13 12:15:30;;;;;;;12.23;4.63;;;33.40;67.90;;;;;;5044503;28;20198;-62
2023/07/13 12:17:58;;;;;;;11.77;4.83;;;33.60;68.00;;;;;;5043564;28;20543;-62
2023/07/13 12:20:36;;;;;;;8.30;4.83;;;33.70;67.50;;;;;;5038917;28;20195;-62
2023/07/13 12:23:06;;;;;;;11.07;5.37;;;33.80;66.00;;;;;;5041794;28;20285;-62
2023/07/13 12:25:36;;;;;;;9.47;4.80;;;33.80;66.50;;;;;;5041058;28;20207;-62
2023/07/13 12:28:21;;;;;;;12.60;4.70;;;33.80;66.80;;;;;;5043208;28;20248;-64
2023/07/13 12:30:49;;;;;;;14.23;5.20;;;33.70;65.90;;;;;;5040251;28;20187;-63
2023/07/13 12:33:16;;;;;;;10.27;4.73;;;33.80;65.40;;;;;;5038550;28;20533;-62
2023/07/13 12:35:49;;;;;;;6.10;4.67;;;33.80;65.20;;;;;;5041827;28;20199;-65
2023/07/13 12:38:17;;;;;;;10.87;4.33;;;33.60;65.20;;;;;;5047293;28;20648;-63
2023/07/13 12:40:44;;;;;;;7.23;5.30;;;33.30;64.60;;;;;;5046923;28;20286;-62
2023/07/13 12:43:17;;;;;;;11.57;5.30;;;33.10;66.00;;;;;;5045795;28;20506;-62
2023/07/13 12:46:05;;;;;;;23.60;6.00;;;32.90;65.80;;;;;;5040563;28;20190;-62
2023/07/13 12:48:41;;;;;;;10.77;5.57;;;32.80;66.00;;;;;;5049079;28;20211;-62
2023/07/13 12:51:22;;;;;;;10.80;4.40;;;32.80;68.10;;;;;;5045375;28;20207;-62
2023/07/13 12:53:57;;;;;;;8.97;4.90;;;32.90;67.70;;;;;;5044190;28;20206;-62
2023/07/13 12:56:26;;;;;;;8.30;4.67;;;33.00;68.40;;;;;;5043493;28;20289;-62
2023/07/13 12:58:59;;;;;;;10.13;4.63;;;33.20;68.00;;;;;;5037298;28;20210;-63
2023/07/13 13:01:34;;;;;;;14.43;4.60;;;33.30;66.70;;;;;;5040250;28;20453;-62
2023/07/13 13:04:06;;;;;;;11.00;5.03;;;33.40;66.10;;;;;;5045038;28;20198;-62
2023/07/13 13:06:35;;;;;;;12.63;5.13;;;33.40;66.80;;;;;;5040902;28;20222;-62